sensor_id;sensor_type;location;lat;lon;timestamp;P1;durP1;ratioP1;P2;durP2;ratioP2
20381;SDS011;10350;51.280;12.400;2023-05-10T00:01:38;4.13;;;3.72;;
20381;SDS011;10350;51.280;12.400;2023-05-10T00:04:04;5.57;;;3.75;;
20381;SDS011;10350;51.280;12.400;2023-05-10T00:06:30;3.95;;;3.55;;
20381;SDS011;10350;51.280;12.400;2023-05-10T00:08:56;3.53;;;3.25;;
20381;SDS011;10350;51.280;12.400;2023-05-10T00:11:22;3.20;;;2.90;;
20381;SDS011;10350;51.280;12.400;2023-05-10T00:13:49;3.53;;;3.22;;
20381;SDS011;10350;51.280;12.400;2023-05-10T00:16:15;4.93;;;3.85;;
20381;SDS011;10350;51.280;12.400;2023-05-10T00:18:41;6.25;;;3.50;;
20381;SDS011;10350;51.280;12.400;2023-05-10T00:21:07;6.03;;;3.60;;
20381;SDS011;10350;51.280;12.400;2023-05-10T00:23:33;3.80;;;3.42;;
20381;SDS011;10350;51.280;12.400;2023-05-10T00:25:59;3.67;;;3.38;;
20381;SDS011;10350;51.280;12.400;2023-05-10T00:28:26;3.50;;;3.10;;
20381;SDS011;10350;51.280;12.400;2023-05-10T00:30:53;5.13;;;3.75;;
20381;SDS011;10350;51.280;12.400;2023-05-10T00:33:19;3.63;;;2.92;;
20381;SDS011;10350;51.280;12.400;2023-05-10T00:35:53;3.63;;;3.30;;
20381;SDS011;10350;51.280;12.400;2023-05-10T00:38:19;3.80;;;3.40;;
20381;SDS011;10350;51.280;12.400;2023-05-10T00:40:45;4.80;;;3.63;;
20381;SDS011;10350;51.280;12.400;2023-05-10T00:43:11;3.50;;;3.20;;
20381;SDS011;10350;51.280;12.400;2023-05-10T00:45:37;3.97;;;3.58;;
20381;SDS011;10350;51.280;12.400;2023-05-10T00:48:05;3.50;;;3.20;;
20381;SDS011;10350;51.280;12.400;2023-05-10T00:50:31;3.03;;;2.78;;
20381;SDS011;10350;51.280;12.400;2023-05-10T00:52:58;3.10;;;2.83;;
20381;SDS011;10350;51.280;12.400;2023-05-10T00:55:30;3.63;;;3.20;;
20381;SDS011;10350;51.280;12.400;2023-05-10T00:57:56;3.70;;;3.40;;
20381;SDS011;10350;51.280;12.400;2023-05-10T01:00:22;3.67;;;3.38;;
20381;SDS011;10350;51.280;12.400;2023-05-10T01:02:48;3.78;;;3.47;;
20381;SDS011;10350;51.280;12.400;2023-05-10T01:05:15;4.00;;;3.60;;
20381;SDS011;10350;51.280;12.400;2023-05-10T01:07:40;3.38;;;3.17;;
20381;SDS011;10350;51.280;12.400;2023-05-10T01:10:07;4.18;;;3.75;;
20381;SDS011;10350;51.280;12.400;2023-05-10T01:12:37;3.75;;;3.20;;
20381;SDS011;10350;51.280;12.400;2023-05-10T01:15:04;4.10;;;3.80;;
20381;SDS011;10350;51.280;12.400;2023-05-10T01:17:30;3.40;;;3.10;;
20381;SDS011;10350;51.280;12.400;2023-05-10T01:19:56;3.15;;;2.95;;
20381;SDS011;10350;51.280;12.400;2023-05-10T01:22:32;3.55;;;3.25;;
20381;SDS011;10350;51.280;12.400;2023-05-10T01:28:02;3.50;;;3.20;;
20381;SDS011;10350;51.280;12.400;2023-05-10T01:30:50;3.10;;;2.90;;
20381;SDS011;10350;51.280;12.400;2023-05-10T01:33:24;3.45;;;2.92;;
20381;SDS011;10350;51.280;12.400;2023-05-10T01:35:54;3.08;;;2.80;;
20381;SDS011;10350;51.280;12.400;2023-05-10T01:38:29;3.42;;;3.13;;
20381;SDS011;10350;51.280;12.400;2023-05-10T01:41:03;3.28;;;2.97;;
20381;SDS011;10350;51.280;12.400;2023-05-10T01:43:42;5.95;;;3.20;;
20381;SDS011;10350;51.280;12.400;2023-05-10T01:46:14;2.80;;;2.60;;
20381;SDS011;10350;51.280;12.400;2023-05-10T01:48:47;3.67;;;3.38;;
20381;SDS011;10350;51.280;12.400;2023-05-10T01:51:15;3.25;;;3.05;;
20381;SDS011;10350;51.280;12.400;2023-05-10T01:53:41;3.72;;;3.42;;
20381;SDS011;10350;51.280;12.400;2023-05-10T01:56:08;8.95;;;4.10;;
20381;SDS011;10350;51.280;12.400;2023-05-10T01:58:35;4.38;;;3.20;;
20381;SDS011;10350;51.280;12.400;2023-05-10T02:01:03;4.82;;;3.40;;
20381;SDS011;10350;51.280;12.400;2023-05-10T02:03:45;4.82;;;3.28;;
20381;SDS011;10350;51.280;12.400;2023-05-10T02:06:12;2.97;;;2.78;;
20381;SDS011;10350;51.280;12.400;2023-05-10T02:08:39;3.05;;;2.85;;
20381;SDS011;10350;51.280;12.400;2023-05-10T02:11:05;4.15;;;3.72;;
20381;SDS011;10350;51.280;12.400;2023-05-10T02:13:32;3.80;;;3.17;;
20381;SDS011;10350;51.280;12.400;2023-05-10T02:16:00;5.30;;;4.37;;
20381;SDS011;10350;51.280;12.400;2023-05-10T02:18:27;2.85;;;2.65;;
20381;SDS011;10350;51.280;12.400;2023-05-10T02:20:53;4.47;;;3.08;;
20381;SDS011;10350;51.280;12.400;2023-05-10T02:23:20;3.67;;;3.38;;
20381;SDS011;10350;51.280;12.400;2023-05-10T02:25:47;3.70;;;3.40;;
20381;SDS011;10350;51.280;12.400;2023-05-10T02:28:13;3.85;;;2.95;;
20381;SDS011;10350;51.280;12.400;2023-05-10T02:30:40;3.95;;;3.42;;
20381;SDS011;10350;51.280;12.400;2023-05-10T02:33:06;3.95;;;3.40;;
20381;SDS011;10350;51.280;12.400;2023-05-10T02:35:32;4.05;;;3.60;;
20381;SDS011;10350;51.280;12.400;2023-05-10T02:37:58;3.05;;;2.80;;
20381;SDS011;10350;51.280;12.400;2023-05-10T02:40:25;3.45;;;3.22;;
20381;SDS011;10350;51.280;12.400;2023-05-10T02:42:58;3.60;;;3.30;;
20381;SDS011;10350;51.280;12.400;2023-05-10T02:45:26;3.15;;;2.75;;
20381;SDS011;10350;51.280;12.400;2023-05-10T02:50:19;3.55;;;3.17;;
20381;SDS011;10350;51.280;12.400;2023-05-10T02:52:49;3.97;;;3.65;;
20381;SDS011;10350;51.280;12.400;2023-05-10T02:55:19;3.75;;;3.45;;
20381;SDS011;10350;51.280;12.400;2023-05-10T02:57:55;6.53;;;3.20;;
20381;SDS011;10350;51.280;12.400;2023-05-10T03:00:22;3.63;;;3.33;;
20381;SDS011;10350;51.280;12.400;2023-05-10T03:02:49;3.93;;;3.63;;
20381;SDS011;10350;51.280;12.400;2023-05-10T03:05:15;3.60;;;3.30;;
20381;SDS011;10350;51.280;12.400;2023-05-10T03:07:41;4.20;;;3.80;;
20381;SDS011;10350;51.280;12.400;2023-05-10T03:10:07;4.00;;;3.70;;
20381;SDS011;10350;51.280;12.400;2023-05-10T03:12:40;4.15;;;3.80;;
20381;SDS011;10350;51.280;12.400;2023-05-10T03:18:10;3.92;;;3.55;;
20381;SDS011;10350;51.280;12.400;2023-05-10T03:20:46;3.47;;;3.13;;
20381;SDS011;10350;51.280;12.400;2023-05-10T03:23:15;3.53;;;3.22;;
20381;SDS011;10350;51.280;12.400;2023-05-10T03:25:44;3.85;;;3.55;;
20381;SDS011;10350;51.280;12.400;2023-05-10T03:28:12;5.15;;;3.67;;
20381;SDS011;10350;51.280;12.400;2023-05-10T03:30:38;4.28;;;3.72;;
20381;SDS011;10350;51.280;12.400;2023-05-10T03:33:05;3.72;;;3.30;;
20381;SDS011;10350;51.280;12.400;2023-05-10T03:35:31;3.40;;;3.20;;
20381;SDS011;10350;51.280;12.400;2023-05-10T03:37:57;3.55;;;3.25;;
20381;SDS011;10350;51.280;12.400;2023-05-10T03:40:23;3.70;;;3.40;;
20381;SDS011;10350;51.280;12.400;2023-05-10T03:42:58;3.65;;;3.35;;
20381;SDS011;10350;51.280;12.400;2023-05-10T03:45:24;4.03;;;3.35;;
20381;SDS011;10350;51.280;12.400;2023-05-10T03:47:50;3.80;;;3.50;;
20381;SDS011;10350;51.280;12.400;2023-05-10T03:50:16;3.80;;;3.50;;
20381;SDS011;10350;51.280;12.400;2023-05-10T03:52:43;3.67;;;3.38;;
20381;SDS011;10350;51.280;12.400;2023-05-10T03:55:09;4.60;;;3.97;;
20381;SDS011;10350;51.280;12.400;2023-05-10T03:57:41;3.30;;;3.10;;
20381;SDS011;10350;51.280;12.400;2023-05-10T04:00:07;4.38;;;3.35;;
20381;SDS011;10350;51.280;12.400;2023-05-10T04:02:33;3.65;;;3.35;;
20381;SDS011;10350;51.280;12.400;2023-05-10T04:04:59;4.15;;;3.40;;
20381;SDS011;10350;51.280;12.400;2023-05-10T04:07:26;3.78;;;3.47;;
20381;SDS011;10350;51.280;12.400;2023-05-10T04:09:51;4.82;;;3.55;;
20381;SDS011;10350;51.280;12.400;2023-05-10T04:12:17;3.78;;;3.47;;
20381;SDS011;10350;51.280;12.400;2023-05-10T04:14:43;4.32;;;3.92;;
20381;SDS011;10350;51.280;12.400;2023-05-10T04:17:09;3.60;;;3.30;;
20381;SDS011;10350;51.280;12.400;2023-05-10T04:19:35;4.65;;;4.07;;
20381;SDS011;10350;51.280;12.400;2023-05-10T04:22:02;3.67;;;3.38;;
20381;SDS011;10350;51.280;12.400;2023-05-10T04:24:28;3.30;;;2.92;;
20381;SDS011;10350;51.280;12.400;2023-05-10T04:26:54;4.35;;;3.35;;
20381;SDS011;10350;51.280;12.400;2023-05-10T04:29:20;3.78;;;3.45;;
20381;SDS011;10350;51.280;12.400;2023-05-10T04:31:46;4.00;;;3.65;;
20381;SDS011;10350;51.280;12.400;2023-05-10T04:34:13;3.87;;;3.57;;
20381;SDS011;10350;51.280;12.400;2023-05-10T04:36:39;3.90;;;3.70;;
20381;SDS011;10350;51.280;12.400;2023-05-10T04:39:05;8.38;;;3.95;;
20381;SDS011;10350;51.280;12.400;2023-05-10T04:41:31;4.40;;;4.10;;
20381;SDS011;10350;51.280;12.400;2023-05-10T04:43:57;4.57;;;4.28;;
20381;SDS011;10350;51.280;12.400;2023-05-10T04:46:23;4.03;;;3.70;;
20381;SDS011;10350;51.280;12.400;2023-05-10T04:48:49;4.50;;;4.18;;
20381;SDS011;10350;51.280;12.400;2023-05-10T04:51:15;4.22;;;3.75;;
20381;SDS011;10350;51.280;12.400;2023-05-10T04:53:41;4.90;;;3.88;;
20381;SDS011;10350;51.280;12.400;2023-05-10T04:56:08;4.13;;;3.83;;
20381;SDS011;10350;51.280;12.400;2023-05-10T04:58:43;4.93;;;4.53;;
20381;SDS011;10350;51.280;12.400;2023-05-10T05:01:09;5.45;;;4.30;;
20381;SDS011;10350;51.280;12.400;2023-05-10T05:03:38;4.70;;;4.40;;
20381;SDS011;10350;51.280;12.400;2023-05-10T05:06:04;4.88;;;4.47;;
20381;SDS011;10350;51.280;12.400;2023-05-10T05:08:30;4.75;;;4.35;;
20381;SDS011;10350;51.280;12.400;2023-05-10T05:10:59;5.10;;;4.70;;
20381;SDS011;10350;51.280;12.400;2023-05-10T05:13:28;4.63;;;4.32;;
20381;SDS011;10350;51.280;12.400;2023-05-10T05:15:56;5.40;;;4.78;;
20381;SDS011;10350;51.280;12.400;2023-05-10T05:18:22;5.32;;;4.95;;
20381;SDS011;10350;51.280;12.400;2023-05-10T05:20:48;5.18;;;4.82;;
20381;SDS011;10350;51.280;12.400;2023-05-10T05:23:17;5.53;;;5.13;;
20381;SDS011;10350;51.280;12.400;2023-05-10T05:28:11;5.55;;;5.15;;
20381;SDS011;10350;51.280;12.400;2023-05-10T05:30:37;5.65;;;5.25;;
20381;SDS011;10350;51.280;12.400;2023-05-10T05:33:15;5.70;;;5.13;;
20381;SDS011;10350;51.280;12.400;2023-05-10T05:35:52;6.82;;;6.22;;
20381;SDS011;10350;51.280;12.400;2023-05-10T05:38:19;8.88;;;8.38;;
20381;SDS011;10350;51.280;12.400;2023-05-10T05:40:46;10.25;;;9.55;;
20381;SDS011;10350;51.280;12.400;2023-05-10T05:43:12;7.97;;;7.55;;
20381;SDS011;10350;51.280;12.400;2023-05-10T05:45:40;8.30;;;7.60;;
20381;SDS011;10350;51.280;12.400;2023-05-10T05:48:07;7.53;;;6.93;;
20381;SDS011;10350;51.280;12.400;2023-05-10T05:50:37;7.82;;;7.18;;
20381;SDS011;10350;51.280;12.400;2023-05-10T05:56:30;8.32;;;7.72;;
20381;SDS011;10350;51.280;12.400;2023-05-10T05:59:12;7.80;;;7.30;;
20381;SDS011;10350;51.280;12.400;2023-05-10T06:01:43;7.07;;;6.68;;
20381;SDS011;10350;51.280;12.400;2023-05-10T06:04:10;8.23;;;7.28;;
20381;SDS011;10350;51.280;12.400;2023-05-10T06:06:36;7.80;;;7.20;;
20381;SDS011;10350;51.280;12.400;2023-05-10T06:09:02;7.57;;;7.07;;
20381;SDS011;10350;51.280;12.400;2023-05-10T06:11:28;8.57;;;7.88;;
20381;SDS011;10350;51.280;12.400;2023-05-10T06:13:54;7.15;;;6.55;;
20381;SDS011;10350;51.280;12.400;2023-05-10T06:16:19;7.55;;;7.05;;
20381;SDS011;10350;51.280;12.400;2023-05-10T06:18:45;5.97;;;5.55;;
20381;SDS011;10350;51.280;12.400;2023-05-10T06:21:11;6.72;;;5.80;;
20381;SDS011;10350;51.280;12.400;2023-05-10T06:23:40;6.82;;;6.22;;
20381;SDS011;10350;51.280;12.400;2023-05-10T06:26:12;6.75;;;6.22;;
20381;SDS011;10350;51.280;12.400;2023-05-10T06:28:38;6.03;;;5.60;;
20381;SDS011;10350;51.280;12.400;2023-05-10T06:31:05;5.80;;;5.38;;
20381;SDS011;10350;51.280;12.400;2023-05-10T06:33:31;6.07;;;5.65;;
20381;SDS011;10350;51.280;12.400;2023-05-10T06:35:57;6.80;;;5.78;;
20381;SDS011;10350;51.280;12.400;2023-05-10T06:38:23;5.80;;;5.40;;
20381;SDS011;10350;51.280;12.400;2023-05-10T06:40:49;7.35;;;6.88;;
20381;SDS011;10350;51.280;12.400;2023-05-10T06:43:15;7.03;;;6.43;;
20381;SDS011;10350;51.280;12.400;2023-05-10T06:45:41;7.45;;;7.03;;
20381;SDS011;10350;51.280;12.400;2023-05-10T06:48:07;9.82;;;9.23;;
20381;SDS011;10350;51.280;12.400;2023-05-10T06:50:33;8.90;;;8.25;;
20381;SDS011;10350;51.280;12.400;2023-05-10T06:52:59;9.18;;;8.57;;
20381;SDS011;10350;51.280;12.400;2023-05-10T06:55:26;8.93;;;8.43;;
20381;SDS011;10350;51.280;12.400;2023-05-10T06:57:52;8.73;;;8.13;;
20381;SDS011;10350;51.280;12.400;2023-05-10T07:00:18;8.95;;;8.25;;
20381;SDS011;10350;51.280;12.400;2023-05-10T07:02:44;9.07;;;8.57;;
20381;SDS011;10350;51.280;12.400;2023-05-10T07:05:10;8.63;;;8.05;;
20381;SDS011;10350;51.280;12.400;2023-05-10T07:07:37;8.77;;;8.27;;
20381;SDS011;10350;51.280;12.400;2023-05-10T07:10:03;10.13;;;9.10;;
20381;SDS011;10350;51.280;12.400;2023-05-10T07:12:29;8.30;;;7.80;;
20381;SDS011;10350;51.280;12.400;2023-05-10T07:14:55;9.25;;;8.60;;
20381;SDS011;10350;51.280;12.400;2023-05-10T07:17:21;8.85;;;8.25;;
20381;SDS011;10350;51.280;12.400;2023-05-10T07:22:33;8.68;;;7.88;;
20381;SDS011;10350;51.280;12.400;2023-05-10T07:24:59;8.88;;;8.27;;
20381;SDS011;10350;51.280;12.400;2023-05-10T07:27:25;8.52;;;8.02;;
20381;SDS011;10350;51.280;12.400;2023-05-10T07:29:51;7.97;;;7.25;;
20381;SDS011;10350;51.280;12.400;2023-05-10T07:32:17;8.93;;;8.43;;
20381;SDS011;10350;51.280;12.400;2023-05-10T07:34:43;9.65;;;9.05;;
20381;SDS011;10350;51.280;12.400;2023-05-10T07:37:09;8.88;;;8.38;;
20381;SDS011;10350;51.280;12.400;2023-05-10T07:39:35;9.88;;;9.13;;
20381;SDS011;10350;51.280;12.400;2023-05-10T07:42:01;7.85;;;7.35;;
20381;SDS011;10350;51.280;12.400;2023-05-10T07:44:28;8.00;;;7.55;;
20381;SDS011;10350;51.280;12.400;2023-05-10T07:46:54;10.32;;;7.93;;
20381;SDS011;10350;51.280;12.400;2023-05-10T07:49:20;8.32;;;7.40;;
20381;SDS011;10350;51.280;12.400;2023-05-10T07:51:46;7.30;;;6.90;;
20381;SDS011;10350;51.280;12.400;2023-05-10T07:54:12;7.88;;;7.45;;
20381;SDS011;10350;51.280;12.400;2023-05-10T07:56:38;7.82;;;7.43;;
20381;SDS011;10350;51.280;12.400;2023-05-10T07:59:04;8.10;;;7.60;;
20381;SDS011;10350;51.280;12.400;2023-05-10T08:01:31;7.45;;;7.05;;
20381;SDS011;10350;51.280;12.400;2023-05-10T08:03:58;8.65;;;8.05;;
20381;SDS011;10350;51.280;12.400;2023-05-10T08:06:25;7.22;;;6.82;;
20381;SDS011;10350;51.280;12.400;2023-05-10T08:11:22;15.10;;;8.02;;
20381;SDS011;10350;51.280;12.400;2023-05-10T08:14:09;8.10;;;7.50;;
20381;SDS011;10350;51.280;12.400;2023-05-10T08:16:35;7.15;;;6.70;;
20381;SDS011;10350;51.280;12.400;2023-05-10T08:19:01;13.38;;;7.22;;
20381;SDS011;10350;51.280;12.400;2023-05-10T08:21:27;6.65;;;6.15;;
20381;SDS011;10350;51.280;12.400;2023-05-10T08:23:53;7.43;;;6.70;;
20381;SDS011;10350;51.280;12.400;2023-05-10T08:26:19;7.53;;;7.03;;
20381;SDS011;10350;51.280;12.400;2023-05-10T08:28:46;6.97;;;6.45;;
20381;SDS011;10350;51.280;12.400;2023-05-10T08:31:12;8.50;;;6.72;;
20381;SDS011;10350;51.280;12.400;2023-05-10T08:33:38;6.13;;;5.72;;
20381;SDS011;10350;51.280;12.400;2023-05-10T08:36:04;7.10;;;6.50;;
20381;SDS011;10350;51.280;12.400;2023-05-10T08:38:30;6.53;;;6.03;;
20381;SDS011;10350;51.280;12.400;2023-05-10T08:41:02;6.53;;;6.03;;
20381;SDS011;10350;51.280;12.400;2023-05-10T08:43:30;6.53;;;6.03;;
20381;SDS011;10350;51.280;12.400;2023-05-10T08:45:59;6.10;;;5.60;;
20381;SDS011;10350;51.280;12.400;2023-05-10T08:48:26;9.23;;;6.00;;
20381;SDS011;10350;51.280;12.400;2023-05-10T08:50:54;5.65;;;5.25;;
20381;SDS011;10350;51.280;12.400;2023-05-10T08:53:26;6.32;;;5.82;;
20381;SDS011;10350;51.280;12.400;2023-05-10T08:55:52;6.50;;;5.75;;
20381;SDS011;10350;51.280;12.400;2023-05-10T08:58:18;6.13;;;5.72;;
20381;SDS011;10350;51.280;12.400;2023-05-10T09:00:45;6.30;;;5.80;;
20381;SDS011;10350;51.280;12.400;2023-05-10T09:03:11;6.10;;;5.70;;
20381;SDS011;10350;51.280;12.400;2023-05-10T09:05:37;13.85;;;6.32;;
20381;SDS011;10350;51.280;12.400;2023-05-10T09:08:03;7.90;;;7.32;;
20381;SDS011;10350;51.280;12.400;2023-05-10T09:10:31;7.47;;;6.78;;
20381;SDS011;10350;51.280;12.400;2023-05-10T09:19:42;7.28;;;6.72;;
20381;SDS011;10350;51.280;12.400;2023-05-10T09:22:19;7.70;;;7.10;;
20381;SDS011;10350;51.280;12.400;2023-05-10T09:28:02;5.50;;;5.10;;
20381;SDS011;10350;51.280;12.400;2023-05-10T09:30:57;6.20;;;5.70;;
20381;SDS011;10350;51.280;12.400;2023-05-10T09:33:32;5.95;;;5.43;;
20381;SDS011;10350;51.280;12.400;2023-05-10T09:36:09;6.50;;;6.05;;
20381;SDS011;10350;51.280;12.400;2023-05-10T09:38:44;6.97;;;6.38;;
20381;SDS011;10350;51.280;12.400;2023-05-10T09:41:17;6.90;;;6.20;;
20381;SDS011;10350;51.280;12.400;2023-05-10T09:43:45;7.82;;;7.22;;
20381;SDS011;10350;51.280;12.400;2023-05-10T09:46:11;6.43;;;6.03;;
20381;SDS011;10350;51.280;12.400;2023-05-10T09:48:44;6.50;;;5.95;;
20381;SDS011;10350;51.280;12.400;2023-05-10T09:51:10;7.60;;;7.00;;
20381;SDS011;10350;51.280;12.400;2023-05-10T09:53:36;8.48;;;7.88;;
20381;SDS011;10350;51.280;12.400;2023-05-10T09:56:02;9.02;;;8.32;;
20381;SDS011;10350;51.280;12.400;2023-05-10T09:58:28;8.80;;;8.10;;
20381;SDS011;10350;51.280;12.400;2023-05-10T10:00:54;8.60;;;8.00;;
20381;SDS011;10350;51.280;12.400;2023-05-10T10:03:21;9.70;;;9.00;;
20381;SDS011;10350;51.280;12.400;2023-05-10T10:05:48;11.02;;;10.15;;
20381;SDS011;10350;51.280;12.400;2023-05-10T10:08:15;11.52;;;10.63;;
20381;SDS011;10350;51.280;12.400;2023-05-10T10:10:41;11.85;;;10.90;;
20381;SDS011;10350;51.280;12.400;2023-05-10T10:13:11;10.75;;;10.05;;
20381;SDS011;10350;51.280;12.400;2023-05-10T10:15:39;12.23;;;11.25;;
20381;SDS011;10350;51.280;12.400;2023-05-10T10:18:05;11.23;;;10.52;;
20381;SDS011;10350;51.280;12.400;2023-05-10T10:20:31;12.73;;;11.80;;
20381;SDS011;10350;51.280;12.400;2023-05-10T10:22:57;13.65;;;12.75;;
20381;SDS011;10350;51.280;12.400;2023-05-10T10:25:23;14.77;;;13.88;;
20381;SDS011;10350;51.280;12.400;2023-05-10T10:27:56;15.77;;;14.70;;
20381;SDS011;10350;51.280;12.400;2023-05-10T10:35:26;16.67;;;15.30;;
20381;SDS011;10350;51.280;12.400;2023-05-10T10:37:53;16.15;;;14.90;;
20381;SDS011;10350;51.280;12.400;2023-05-10T10:40:32;16.90;;;15.75;;
20381;SDS011;10350;51.280;12.400;2023-05-10T10:43:40;17.52;;;16.48;;
20381;SDS011;10350;51.280;12.400;2023-05-10T10:46:09;16.88;;;15.60;;
20381;SDS011;10350;51.280;12.400;2023-05-10T10:48:34;15.60;;;14.10;;
20381;SDS011;10350;51.280;12.400;2023-05-10T10:51:01;18.25;;;17.10;;
20381;SDS011;10350;51.280;12.400;2023-05-10T10:53:27;19.45;;;18.27;;
20381;SDS011;10350;51.280;12.400;2023-05-10T10:56:09;21.50;;;19.40;;
20381;SDS011;10350;51.280;12.400;2023-05-10T10:58:37;16.95;;;15.90;;
20381;SDS011;10350;51.280;12.400;2023-05-10T11:01:16;18.75;;;17.58;;
20381;SDS011;10350;51.280;12.400;2023-05-10T11:04:16;19.35;;;17.85;;
20381;SDS011;10350;51.280;12.400;2023-05-10T11:06:41;18.20;;;17.10;;
20381;SDS011;10350;51.280;12.400;2023-05-10T11:09:08;19.75;;;18.52;;
20381;SDS011;10350;51.280;12.400;2023-05-10T11:11:34;20.95;;;19.70;;
20381;SDS011;10350;51.280;12.400;2023-05-10T11:14:04;23.15;;;21.80;;
20381;SDS011;10350;51.280;12.400;2023-05-10T11:16:40;24.50;;;23.05;;
20381;SDS011;10350;51.280;12.400;2023-05-10T11:19:07;23.98;;;22.52;;
20381;SDS011;10350;51.280;12.400;2023-05-10T11:21:34;26.55;;;25.00;;
20381;SDS011;10350;51.280;12.400;2023-05-10T11:24:13;27.83;;;26.25;;
20381;SDS011;10350;51.280;12.400;2023-05-10T11:26:39;31.92;;;30.08;;
20381;SDS011;10350;51.280;12.400;2023-05-10T11:29:05;32.40;;;30.17;;
20381;SDS011;10350;51.280;12.400;2023-05-10T11:31:31;37.92;;;35.72;;
20381;SDS011;10350;51.280;12.400;2023-05-10T11:33:58;35.10;;;32.90;;
20381;SDS011;10350;51.280;12.400;2023-05-10T11:36:26;38.25;;;35.97;;
20381;SDS011;10350;51.280;12.400;2023-05-10T11:38:52;38.87;;;36.47;;
20381;SDS011;10350;51.280;12.400;2023-05-10T11:41:19;41.25;;;38.97;;
20381;SDS011;10350;51.280;12.400;2023-05-10T11:43:52;37.05;;;34.78;;
20381;SDS011;10350;51.280;12.400;2023-05-10T11:46:19;41.38;;;39.00;;
20381;SDS011;10350;51.280;12.400;2023-05-10T11:48:45;41.28;;;38.78;;
20381;SDS011;10350;51.280;12.400;2023-05-10T11:51:12;40.65;;;38.22;;
20381;SDS011;10350;51.280;12.400;2023-05-10T11:53:38;40.88;;;38.50;;
20381;SDS011;10350;51.280;12.400;2023-05-10T11:56:07;40.97;;;38.50;;
20381;SDS011;10350;51.280;12.400;2023-05-10T11:58:34;42.10;;;39.75;;
20381;SDS011;10350;51.280;12.400;2023-05-10T12:01:00;41.42;;;38.92;;
20381;SDS011;10350;51.280;12.400;2023-05-10T12:03:27;43.00;;;40.28;;
20381;SDS011;10350;51.280;12.400;2023-05-10T12:05:54;40.65;;;38.22;;
20381;SDS011;10350;51.280;12.400;2023-05-10T12:08:21;42.28;;;39.70;;
20381;SDS011;10350;51.280;12.400;2023-05-10T12:10:47;44.03;;;41.47;;
20381;SDS011;10350;51.280;12.400;2023-05-10T12:13:13;41.40;;;39.00;;
20381;SDS011;10350;51.280;12.400;2023-05-10T12:15:42;39.50;;;37.20;;
20381;SDS011;10350;51.280;12.400;2023-05-10T12:18:09;39.20;;;36.85;;
20381;SDS011;10350;51.280;12.400;2023-05-10T12:20:36;40.47;;;38.05;;
20381;SDS011;10350;51.280;12.400;2023-05-10T12:23:02;38.95;;;36.75;;
20381;SDS011;10350;51.280;12.400;2023-05-10T12:25:33;40.47;;;38.03;;
20381;SDS011;10350;51.280;12.400;2023-05-10T12:28:00;43.30;;;40.60;;
20381;SDS011;10350;51.280;12.400;2023-05-10T12:30:26;43.28;;;40.80;;
20381;SDS011;10350;51.280;12.400;2023-05-10T12:32:53;40.72;;;38.33;;
20381;SDS011;10350;51.280;12.400;2023-05-10T12:35:19;40.25;;;37.92;;
20381;SDS011;10350;51.280;12.400;2023-05-10T12:37:47;39.97;;;37.67;;
20381;SDS011;10350;51.280;12.400;2023-05-10T12:40:12;40.35;;;37.97;;
20381;SDS011;10350;51.280;12.400;2023-05-10T12:42:38;36.17;;;34.00;;
20381;SDS011;10350;51.280;12.400;2023-05-10T12:45:05;38.47;;;36.22;;
20381;SDS011;10350;51.280;12.400;2023-05-10T12:47:31;33.42;;;31.55;;
20381;SDS011;10350;51.280;12.400;2023-05-10T12:49:58;33.17;;;31.35;;
20381;SDS011;10350;51.280;12.400;2023-05-10T12:52:24;34.60;;;32.60;;
20381;SDS011;10350;51.280;12.400;2023-05-10T12:54:50;32.85;;;31.00;;
20381;SDS011;10350;51.280;12.400;2023-05-10T12:57:16;35.55;;;33.45;;
20381;SDS011;10350;51.280;12.400;2023-05-10T12:59:42;35.45;;;33.42;;
20381;SDS011;10350;51.280;12.400;2023-05-10T13:02:08;33.28;;;31.25;;
20381;SDS011;10350;51.280;12.400;2023-05-10T13:04:35;33.30;;;31.40;;
20381;SDS011;10350;51.280;12.400;2023-05-10T13:07:04;30.60;;;28.88;;
20381;SDS011;10350;51.280;12.400;2023-05-10T13:09:30;31.50;;;29.60;;
20381;SDS011;10350;51.280;12.400;2023-05-10T13:11:56;29.73;;;28.13;;
20381;SDS011;10350;51.280;12.400;2023-05-10T13:14:22;31.40;;;29.63;;
20381;SDS011;10350;51.280;12.400;2023-05-10T13:16:48;28.48;;;26.90;;
20381;SDS011;10350;51.280;12.400;2023-05-10T13:19:14;29.77;;;28.08;;
20381;SDS011;10350;51.280;12.400;2023-05-10T13:21:40;29.85;;;28.25;;
20381;SDS011;10350;51.280;12.400;2023-05-10T13:24:06;31.45;;;29.73;;
20381;SDS011;10350;51.280;12.400;2023-05-10T13:26:32;31.88;;;30.08;;
20381;SDS011;10350;51.280;12.400;2023-05-10T13:28:58;29.55;;;27.85;;
20381;SDS011;10350;51.280;12.400;2023-05-10T13:31:24;28.95;;;27.35;;
20381;SDS011;10350;51.280;12.400;2023-05-10T13:33:53;29.63;;;28.02;;
20381;SDS011;10350;51.280;12.400;2023-05-10T13:36:20;29.17;;;27.58;;
20381;SDS011;10350;51.280;12.400;2023-05-10T13:38:51;29.23;;;27.63;;
20381;SDS011;10350;51.280;12.400;2023-05-10T13:41:17;30.58;;;28.98;;
20381;SDS011;10350;51.280;12.400;2023-05-10T13:43:44;31.95;;;30.15;;
20381;SDS011;10350;51.280;12.400;2023-05-10T13:46:14;27.95;;;26.35;;
20381;SDS011;10350;51.280;12.400;2023-05-10T13:48:40;28.92;;;27.33;;
20381;SDS011;10350;51.280;12.400;2023-05-10T13:51:06;28.30;;;26.70;;
20381;SDS011;10350;51.280;12.400;2023-05-10T13:53:32;27.80;;;26.20;;
20381;SDS011;10350;51.280;12.400;2023-05-10T13:55:58;29.67;;;27.98;;
20381;SDS011;10350;51.280;12.400;2023-05-10T13:58:24;30.05;;;28.42;;
20381;SDS011;10350;51.280;12.400;2023-05-10T14:00:50;29.92;;;28.23;;
20381;SDS011;10350;51.280;12.400;2023-05-10T14:03:17;31.33;;;29.50;;
20381;SDS011;10350;51.280;12.400;2023-05-10T14:05:42;33.42;;;31.63;;
20381;SDS011;10350;51.280;12.400;2023-05-10T14:08:10;35.72;;;33.72;;
20381;SDS011;10350;51.280;12.400;2023-05-10T14:10:37;31.30;;;29.45;;
20381;SDS011;10350;51.280;12.400;2023-05-10T14:13:04;31.33;;;29.55;;
20381;SDS011;10350;51.280;12.400;2023-05-10T14:15:31;29.00;;;27.30;;
20381;SDS011;10350;51.280;12.400;2023-05-10T14:17:56;29.83;;;27.92;;
20381;SDS011;10350;51.280;12.400;2023-05-10T14:20:22;31.23;;;29.30;;
20381;SDS011;10350;51.280;12.400;2023-05-10T14:22:48;29.67;;;27.98;;
20381;SDS011;10350;51.280;12.400;2023-05-10T14:25:14;28.80;;;27.15;;
20381;SDS011;10350;51.280;12.400;2023-05-10T14:27:40;27.63;;;26.02;;
20381;SDS011;10350;51.280;12.400;2023-05-10T14:30:06;29.02;;;27.20;;
20381;SDS011;10350;51.280;12.400;2023-05-10T14:32:32;27.10;;;25.40;;
20381;SDS011;10350;51.280;12.400;2023-05-10T14:34:58;25.63;;;24.13;;
20381;SDS011;10350;51.280;12.400;2023-05-10T14:37:25;27.80;;;26.20;;
20381;SDS011;10350;51.280;12.400;2023-05-10T14:39:50;24.10;;;22.80;;
20381;SDS011;10350;51.280;12.400;2023-05-10T14:42:17;27.75;;;26.25;;
20381;SDS011;10350;51.280;12.400;2023-05-10T14:44:43;27.23;;;25.83;;
20381;SDS011;10350;51.280;12.400;2023-05-10T14:47:09;24.48;;;23.17;;
20381;SDS011;10350;51.280;12.400;2023-05-10T14:49:35;22.88;;;21.67;;
20381;SDS011;10350;51.280;12.400;2023-05-10T14:52:00;20.60;;;19.60;;
20381;SDS011;10350;51.280;12.400;2023-05-10T14:54:26;21.08;;;20.00;;
20381;SDS011;10350;51.280;12.400;2023-05-10T14:56:52;19.90;;;18.90;;
20381;SDS011;10350;51.280;12.400;2023-05-10T14:59:18;22.63;;;21.50;;
20381;SDS011;10350;51.280;12.400;2023-05-10T15:01:44;24.10;;;22.85;;
20381;SDS011;10350;51.280;12.400;2023-05-10T15:04:10;24.65;;;23.42;;